Atwood, Kansas
Current Conditions -  °F | °C
As of 4:35 PM on Monday 20 Oct 2014 (Local Time) from KCBK Reporting Station
Clear Clear  
Wind Chill: 25°   Ceiling: Unl
Heat Index: 25°   Visibility: 10mi
Dew Point:   Wind: 6mph
Humidity: 29%   Direction: 160°SSE
Pressure: 30.1"   Gusts: NA
Location:  39.81°N, 101.04°W
Report Text: KCBK 202135Z AUTO 16005KT 10SM CLR 25/06 A3010 RMK AO2
Loading
Personal Weather Stations






























Interactive Weather Map
Tropical Storm Tracking
New forecast layout! Learn more

10-Day Weather Forecast

Advertisements
Track Severe Weather on mobile